Time;durP1;ratioP1;P1;durP2;ratioP2;P2;SDS_P1;SDS_P2;PMS_P1;PMS_P2;Temp;Humidity;BMP_temperature;BMP_pressure;BME280_temperature;BME280_humidity;BME280_pressure;Samples;Min_cycle;Max_cycle;Signal;HPM_P1;HPM_P2
2022/09/09 00:00:30;;;;;;;13.35;12.13;;;;;;;19.26;100.00;99575.97;5109772;28;20226;-52
2022/09/09 00:03:08;;;;;;;13.48;12.13;;;;;;;19.26;100.00;99573.34;5110096;28;20716;-52
2022/09/09 00:05:44;;;;;;;16.17;12.32;;;;;;;19.20;100.00;99579.81;5109967;28;20277;-52
2022/09/09 00:08:18;;;;;;;12.73;11.73;;;;;;;19.28;100.00;99584.63;5109952;28;20216;-53
2022/09/09 00:10:46;;;;;;;12.32;11.23;;;;;;;19.30;99.97;99580.91;5109414;28;20578;-52
2022/09/09 00:13:19;;;;;;;11.90;10.80;;;;;;;19.30;98.56;99583.53;5110013;28;20588;-53
2022/09/09 00:15:56;;;;;;;10.85;9.90;;;;;;;19.31;97.62;99589.66;5108489;28;20293;-60
2022/09/09 00:18:29;;;;;;;13.65;9.60;;;;;;;19.40;96.79;99583.84;5109614;28;20604;-61
2022/09/09 00:21:04;;;;;;;9.57;8.82;;;;;;;19.33;95.88;99583.38;5109367;28;20195;-61
2022/09/09 00:23:37;;;;;;;12.00;8.27;;;;;;;19.33;96.06;99582.50;5109737;28;20194;-60
2022/09/09 00:26:10;;;;;;;10.90;9.68;;;;;;;19.21;96.56;99581.50;5109506;28;20195;-60
2022/09/09 00:28:45;;;;;;;10.80;9.80;;;;;;;19.23;96.42;99583.09;5109727;28;20240;-60
2022/09/09 00:31:14;;;;;;;9.93;9.10;;;;;;;19.28;95.55;99587.25;5109674;28;20701;-61
2022/09/09 00:33:44;;;;;;;10.18;9.40;;;;;;;19.34;94.90;99589.47;5109301;28;20234;-60
2022/09/09 00:36:15;;;;;;;12.82;9.10;;;;;;;19.45;94.77;99608.06;5109722;28;20194;-61
2022/09/09 00:38:49;;;;;;;10.45;9.60;;;;;;;19.37;95.26;99600.66;5109588;28;20252;-61
2022/09/09 00:41:22;;;;;;;10.68;9.77;;;;;;;19.29;96.05;99602.94;5109624;28;20186;-62
2022/09/09 00:43:58;;;;;;;19.83;9.68;;;;;;;19.25;96.51;99597.97;5109321;28;20206;-61
2022/09/09 00:46:51;;;;;;;14.85;10.02;;;;;;;19.12;98.36;99582.94;5109598;28;20267;-60
2022/09/09 00:49:27;;;;;;;10.93;9.83;;;;;;;19.01;99.67;99588.03;5112363;28;20213;-59
2022/09/09 00:52:07;;;;;;;10.30;9.45;;;;;;;18.97;99.78;99588.28;5113035;28;20280;-54
2022/09/09 00:54:48;;;;;;;11.75;10.50;;;;;;;18.99;99.17;99594.31;5113121;27;20195;-60
2022/09/09 00:57:24;;;;;;;11.40;10.07;;;;;;;19.02;99.88;99594.13;5113423;28;20375;-60
2022/09/09 00:59:53;;;;;;;15.85;10.70;;;;;;;19.00;99.76;99596.00;5113066;28;20196;-59
2022/09/09 01:02:29;;;;;;;12.32;10.80;;;;;;;18.80;100.00;99579.69;5112920;28;20226;-60
2022/09/09 01:05:01;;;;;;;13.95;10.50;;;;;;;18.83;100.00;99597.06;5112771;28;20205;-60
2022/09/09 01:07:28;;;;;;;11.33;10.40;;;;;;;18.76;100.00;99607.09;5112932;28;20199;-60
2022/09/09 01:09:59;;;;;;;11.80;10.77;;;;;;;18.74;100.00;99597.59;5112757;28;20228;-53
2022/09/09 01:12:35;;;;;;;10.60;9.57;;;;;;;18.78;100.00;99597.34;5113055;28;20698;-59
2022/09/09 01:15:11;;;;;;;12.60;9.87;;;;;;;18.79;100.00;99599.03;5112608;28;20200;-60
2022/09/09 01:17:51;;;;;;;10.80;9.75;;;;;;;18.76;100.00;99593.94;5112788;28;20268;-60
2022/09/09 01:20:24;;;;;;;12.77;10.57;;;;;;;18.92;100.00;99591.22;5113062;28;20190;-53
2022/09/09 01:23:04;;;;;;;10.82;9.88;;;;;;;18.99;99.63;99599.56;5112640;28;20581;-53
2022/09/09 01:26:16;;;;;;;11.10;10.07;;;;;;;19.04;97.94;99598.38;5112543;28;20199;-54
2022/09/09 01:28:46;;;;;;;10.25;9.27;;;;;;;19.01;97.60;99597.69;5109314;28;20217;-60
2022/09/09 01:31:18;;;;;;;10.55;9.65;;;;;;;18.91;97.46;99599.22;5112490;28;20604;-60
2022/09/09 01:33:45;;;;;;;10.70;9.88;;;;;;;18.90;97.05;99592.25;5112018;28;20230;-61
2022/09/09 01:36:16;;;;;;;11.35;9.48;;;;;;;18.81;97.33;99586.63;5112134;28;20220;-60
2022/09/09 01:38:43;;;;;;;11.95;9.55;;;;;;;18.82;97.14;99588.31;5112423;28;20205;-59
2022/09/09 01:41:11;;;;;;;11.85;9.65;;;;;;;18.71;97.18;99590.78;5112399;28;20606;-52
2022/09/09 01:43:38;;;;;;;14.02;9.20;;;;;;;18.75;97.26;99596.66;5112164;28;20198;-52
2022/09/09 01:46:05;;;;;;;10.75;9.70;;;;;;;18.85;96.71;99593.38;5112015;28;20194;-53
2022/09/09 01:48:32;;;;;;;10.30;9.27;;;;;;;18.89;96.08;99596.66;5112141;28;20666;-53
2022/09/09 01:50:59;;;;;;;9.15;8.43;;;;;;;18.91;96.19;99583.44;5111816;28;20229;-53
2022/09/09 01:53:26;;;;;;;10.77;9.40;;;;;;;18.84;94.63;99581.19;5112283;28;20642;-52
2022/09/09 01:56:04;;;;;;;9.73;7.68;;;;;;;18.89;93.66;99580.88;5111973;28;20634;-61
2022/09/09 01:58:45;;;;;;;7.95;7.00;;;;;;;18.89;92.37;99588.78;5111924;28;20285;-61
2022/09/09 02:01:21;;;;;;;7.47;6.73;;;;;;;18.89;91.01;99588.78;5111319;28;20203;-53
2022/09/09 02:03:54;;;;;;;10.02;7.30;;;;;;;18.90;90.90;99589.63;5111906;28;20201;-52
2022/09/09 02:06:28;;;;;;;9.70;7.63;;;;;;;18.88;91.21;99592.34;5112052;28;20610;-52
2022/09/09 02:08:59;;;;;;;6.97;6.57;;;;;;;18.78;90.71;99581.56;5111721;28;20204;-60
2022/09/09 02:11:28;;;;;;;7.93;7.22;;;;;;;18.88;91.17;99589.72;5111733;28;20257;-60
2022/09/09 02:14:01;;;;;;;7.55;6.82;;;;;;;18.93;91.12;99584.19;5111555;28;20276;-60
2022/09/09 02:16:35;;;;;;;10.52;7.40;;;;;;;18.96;91.18;99587.44;5111650;28;20213;-59
2022/09/09 02:19:07;;;;;;;10.00;6.97;;;;;;;18.79;91.59;99567.47;5111433;28;20205;-60
2022/09/09 02:21:36;;;;;;;8.00;7.18;;;;;;;18.80;91.88;99563.06;5111500;28;20693;-58
2022/09/09 02:24:07;;;;;;;11.50;8.43;;;;;;;18.96;92.17;99586.63;5111190;28;20199;-60
2022/09/09 02:26:38;;;;;;;8.77;7.95;;;;;;;18.97;92.49;99583.03;5111248;28;20198;-52
2022/09/09 02:29:10;;;;;;;10.20;8.88;;;;;;;18.88;93.88;99579.19;5111165;28;20199;-52
2022/09/09 02:31:39;;;;;;;13.20;11.63;;;;;;;18.83;96.20;99574.25;5111192;28;20222;-58
2022/09/09 02:34:10;;;;;;;13.60;11.77;;;;;;;18.84;97.59;99581.19;5111000;28;20269;-58
2022/09/09 02:36:40;;;;;;;16.40;12.47;;;;;;;18.83;98.19;99584.75;5111034;28;20263;-59
2022/09/09 02:39:09;;;;;;;13.40;12.07;;;;;;;18.80;98.78;99584.94;5111374;28;20195;-60
2022/09/09 02:41:40;;;;;;;15.98;13.27;;;;;;;18.70;99.45;99573.28;5111107;28;20197;-60
2022/09/09 02:44:12;;;;;;;15.45;13.90;;;;;;;18.85;99.59;99587.25;5110962;28;20277;-60
2022/09/09 02:46:58;;;;;;;20.63;14.88;;;;;;;18.77;100.00;99579.00;5111006;28;20202;-60
2022/09/09 02:49:33;;;;;;;14.38;12.95;;;;;;;18.77;100.00;99584.28;5111351;28;20208;-60
2022/09/09 02:52:05;;;;;;;14.60;11.90;;;;;;;18.76;97.54;99591.31;5110668;28;20221;-52
2022/09/09 02:54:33;;;;;;;14.95;11.30;;;;;;;18.78;97.20;99599.97;5110913;28;20233;-61
2022/09/09 02:57:06;;;;;;;14.90;11.63;;;;;;;18.84;96.62;99593.50;5110617;28;20199;-53
2022/09/09 02:59:34;;;;;;;12.88;10.40;;;;;;;18.73;96.80;99594.16;5110666;28;20190;-60
2022/09/09 03:02:02;;;;;;;14.95;10.52;;;;;;;18.42;97.22;99567.97;5110683;28;20194;-53
2022/09/09 03:04:29;;;;;;;16.60;10.43;;;;;;;18.57;96.14;99593.34;5111002;28;20202;-53
2022/09/09 03:06:56;;;;;;;14.25;9.43;;;;;;;18.67;94.99;99598.91;5109135;28;20731;-53
2022/09/09 03:09:23;;;;;;;10.43;8.82;;;;;;;18.69;95.21;99594.41;5090356;28;20199;-53
2022/09/09 03:11:50;;;;;;;11.45;10.32;;;;;;;18.69;95.89;99591.78;5099210;28;20669;-53
2022/09/09 03:14:20;;;;;;;12.45;9.55;;;;;;;18.78;95.33;99589.44;5110354;28;20668;-59
2022/09/09 03:16:49;;;;;;;9.98;8.10;;;;;;;18.79;92.23;99591.13;5111095;28;20690;-58
2022/09/09 03:19:16;;;;;;;8.52;7.70;;;;;;;18.81;92.47;99599.78;5109238;28;20191;-52
2022/09/09 03:21:43;;;;;;;9.80;8.90;;;;;;;18.71;94.15;99601.28;5109097;28;20182;-53
2022/09/09 03:24:09;;;;;;;9.38;8.68;;;;;;;18.64;94.37;99605.19;5108886;28;20218;-53
2022/09/09 03:26:37;;;;;;;9.95;8.90;;;;;;;18.55;94.13;99605.72;5108902;28;20186;-58
2022/09/09 03:29:06;;;;;;;9.68;8.68;;;;;;;18.44;94.97;99611.63;5108985;28;20579;-52
2022/09/09 03:31:33;;;;;;;11.43;8.32;;;;;;;18.41;95.89;99605.69;5108766;28;20309;-53
2022/09/09 03:34:01;;;;;;;14.63;9.63;;;;;;;18.37;97.00;99614.72;5108544;28;20644;-53
2022/09/09 03:36:29;;;;;;;9.37;8.47;;;;;;;18.33;97.34;99610.56;5106414;28;20191;-60
2022/09/09 03:38:56;;;;;;;15.67;9.27;;;;;;;18.27;98.56;99622.31;5108908;28;20218;-60
2022/09/09 03:41:23;;;;;;;15.10;10.17;;;;;;;18.19;100.00;99627.13;5108644;28;20201;-60
2022/09/09 03:43:50;;;;;;;11.07;9.93;;;;;;;18.17;100.00;99626.41;5108704;28;20597;-61
2022/09/09 03:46:17;;;;;;;13.57;11.73;;;;;;;18.15;100.00;99623.03;5108615;28;20205;-60
2022/09/09 03:48:45;;;;;;;15.67;13.17;;;;;;;18.19;100.00;99618.41;5108890;28;20566;-60
2022/09/09 03:51:14;;;;;;;14.43;12.90;;;;;;;18.17;100.00;99626.41;5106824;28;20271;-53
2022/09/09 03:53:41;;;;;;;15.90;14.33;;;;;;;18.20;100.00;99617.47;5109589;28;20190;-60
2022/09/09 03:56:09;;;;;;;15.67;14.17;;;;;;;18.16;100.00;99623.88;5110060;28;20762;-60
2022/09/09 03:58:37;;;;;;;15.37;13.77;;;;;;;18.02;100.00;99617.63;5110063;28;20195;-60
2022/09/09 04:01:06;;;;;;;17.40;14.67;;;;;;;18.12;100.00;99612.69;5110040;28;20670;-53
2022/09/09 04:03:34;;;;;;;17.03;13.63;;;;;;;18.12;100.00;99607.44;5109992;28;20693;-53
2022/09/09 04:06:06;;;;;;;14.87;12.83;;;;;;;18.14;100.00;99611.66;5109646;28;20202;-53
2022/09/09 04:08:35;;;;;;;16.43;12.93;;;;;;;18.16;100.00;99613.34;5109673;28;20285;-60
2022/09/09 04:11:06;;;;;;;18.20;12.87;;;;;;;18.05;100.00;99617.47;5102997;28;20693;-60
2022/09/09 04:13:33;;;;;;;15.23;13.60;;;;;;;17.94;100.00;99617.22;5093601;28;20203;-54
2022/09/09 04:16:03;;;;;;;17.10;13.93;;;;;;;17.87;100.00;99615.88;5104569;28;20203;-52
2022/09/09 04:18:30;;;;;;;19.10;14.30;;;;;;;17.90;100.00;99618.31;5109576;28;20197;-51
2022/09/09 04:20:58;;;;;;;19.00;14.90;;;;;;;17.97;100.00;99619.66;5109603;28;20229;-51
2022/09/09 04:23:27;;;;;;;25.37;17.47;;;;;;;18.06;100.00;99613.03;5111317;28;20198;-51
2022/09/09 04:25:56;;;;;;;19.47;15.47;;;;;;;18.11;100.00;99600.47;5113916;28;20194;-51
2022/09/09 04:28:25;;;;;;;16.53;14.67;;;;;;;18.08;100.00;99598.03;5113853;28;20194;-51
2022/09/09 04:30:52;;;;;;;20.77;15.80;;;;;;;18.16;100.00;99603.69;5113882;28;20222;-53
2022/09/09 04:33:20;;;;;;;16.73;15.17;;;;;;;18.19;100.00;99602.66;5113280;28;20237;-58
2022/09/09 04:35:48;;;;;;;15.67;14.17;;;;;;;18.32;100.00;99614.13;5113331;28;20289;-58
2022/09/09 04:38:15;;;;;;;18.58;14.75;;;;;;;18.40;100.00;99612.72;5113588;28;20739;-58
2022/09/09 04:40:43;;;;;;;15.77;14.33;;;;;;;18.58;100.00;99613.47;5113609;28;20195;-59
2022/09/09 04:43:12;;;;;;;18.20;15.33;;;;;;;18.88;100.00;99612.53;5113433;28;20281;-58
2022/09/09 04:45:40;;;;;;;15.52;14.02;;;;;;;19.23;100.00;99619.94;5113468;28;20202;-60
2022/09/09 04:48:07;;;;;;;17.05;14.90;;;;;;;19.35;100.00;99628.00;5113090;28;20214;-59
2022/09/09 04:50:34;;;;;;;21.20;15.52;;;;;;;19.29;100.00;99628.41;5113179;28;20205;-59
2022/09/09 04:53:02;;;;;;;17.58;14.43;;;;;;;19.21;100.00;99631.50;5113203;28;20286;-59
2022/09/09 04:55:30;;;;;;;16.73;14.98;;;;;;;19.29;100.00;99639.78;5113301;28;20693;-58
2022/09/09 04:57:57;;;;;;;15.90;14.27;;;;;;;19.51;100.00;99640.16;5112089;28;20195;-59
2022/09/09 05:00:26;;;;;;;17.90;14.73;;;;;;;19.71;98.30;99620.44;5111657;28;20214;-58
2022/09/09 05:02:53;;;;;;;22.73;13.40;;;;;;;20.85;92.37;99651.50;5111726;28;20195;-58
2022/09/09 05:05:20;;;;;;;21.02;14.25;;;;;;;22.23;84.23;99648.66;5111580;28;20187;-59
2022/09/09 05:07:47;;;;;;;15.48;13.32;;;;;;;23.62;75.07;99644.00;5111661;28;20195;-59
2022/09/09 05:10:16;;;;;;;15.52;11.82;;;;;;;25.05;67.45;99655.91;5111550;28;20207;-59
2022/09/09 05:12:43;;;;;;;14.50;11.75;;;;;;;26.18;61.19;99665.34;5111520;28;20230;-59
2022/09/09 05:15:11;;;;;;;12.90;10.77;;;;;;;27.07;57.06;99661.47;5111297;28;20204;-59
2022/09/09 05:17:40;;;;;;;12.18;10.10;;;;;;;27.08;56.26;99655.16;5091936;28;20227;-58
2022/09/09 05:20:07;;;;;;;11.00;10.07;;;;;;;27.33;54.95;99664.28;5092380;28;20730;-59
2022/09/09 05:22:34;;;;;;;15.35;10.80;;;;;;;27.71;53.74;99652.63;5092220;28;20199;-59
2022/09/09 05:25:01;;;;;;;12.30;11.18;;;;;;;28.01;51.65;99646.91;5092155;28;20204;-59
2022/09/09 05:27:28;;;;;;;11.63;10.40;;;;;;;28.51;50.07;99657.06;5091999;28;20706;-59
2022/09/09 05:29:55;;;;;;;11.68;9.48;;;;;;;29.45;47.03;99655.34;5092173;28;20200;-60
2022/09/09 05:32:22;;;;;;;22.75;10.20;;;;;;;29.62;45.76;99656.25;5091531;28;20237;-60
2022/09/09 05:34:51;;;;;;;15.73;9.50;;;;;;;29.46;45.72;99662.34;5091037;28;20206;-60
2022/09/09 05:37:18;;;;;;;15.02;10.00;;;;;;;29.84;45.05;99660.13;5091746;28;20241;-59
2022/09/09 05:39:45;;;;;;;9.98;9.15;;;;;;;30.49;42.78;99646.84;5092391;28;20596;-60
2022/09/09 05:42:12;;;;;;;11.68;9.32;;;;;;;30.82;41.64;99667.25;5091718;28;20207;-60
2022/09/09 05:44:39;;;;;;;15.48;10.50;;;;;;;30.25;42.73;99669.94;5091898;28;20195;-59
2022/09/09 05:47:07;;;;;;;10.60;9.60;;;;;;;29.56;43.89;99665.75;5094095;28;20220;-59
2022/09/09 05:49:34;;;;;;;10.20;9.15;;;;;;;29.98;43.75;99661.38;5111815;28;20259;-61
2022/09/09 05:52:03;;;;;;;10.40;9.38;;;;;;;30.70;42.47;99651.72;5111897;28;20228;-60
2022/09/09 05:54:30;;;;;;;10.45;8.65;;;;;;;30.81;41.55;99664.78;5111968;28;20258;-59
2022/09/09 05:56:58;;;;;;;10.02;8.98;;;;;;;31.17;40.80;99665.19;5112029;28;20198;-58
2022/09/09 05:59:24;;;;;;;14.52;9.52;;;;;;;31.44;40.17;99661.25;5112028;28;20662;-59
2022/09/09 06:01:52;;;;;;;9.43;8.60;;;;;;;31.56;39.79;99666.06;5111843;28;20197;-60
2022/09/09 06:04:21;;;;;;;11.57;9.23;;;;;;;31.96;39.38;99661.50;5111765;28;20229;-60
2022/09/09 06:06:48;;;;;;;14.35;9.13;;;;;;;31.94;38.87;99667.03;5111477;28;20195;-59
2022/09/09 06:09:16;;;;;;;15.82;8.95;;;;;;;32.69;37.47;99647.50;5111497;28;20212;-59
2022/09/09 06:11:45;;;;;;;9.55;8.65;;;;;;;32.50;37.60;99640.81;5111995;28;20781;-60
2022/09/09 06:14:12;;;;;;;9.55;8.38;;;;;;;31.36;38.70;99644.19;5111818;28;20195;-60
2022/09/09 06:16:39;;;;;;;10.27;7.90;;;;;;;31.90;38.38;99648.78;5111575;28;20282;-59
2022/09/09 06:19:06;;;;;;;10.40;7.90;;;;;;;33.10;36.29;99647.94;5111477;28;20202;-59
2022/09/09 06:21:35;;;;;;;11.45;8.32;;;;;;;32.68;36.63;99649.38;5111434;28;20229;-59
2022/09/09 06:24:03;;;;;;;9.00;7.97;;;;;;;32.66;36.68;99647.88;5111438;28;20560;-59
2022/09/09 06:26:33;;;;;;;13.02;7.05;;;;;;;32.55;36.80;99637.56;5111521;28;20666;-59
2022/09/09 06:29:02;;;;;;;7.40;6.75;;;;;;;33.33;35.07;99639.78;5111368;28;20198;-58
2022/09/09 06:31:31;;;;;;;7.55;6.97;;;;;;;32.88;34.84;99638.94;5110452;28;20690;-58
2022/09/09 06:33:59;;;;;;;8.55;7.57;;;;;;;32.26;36.06;99641.84;5109880;28;20256;-59
2022/09/09 06:36:28;;;;;;;8.90;7.50;;;;;;;32.00;37.10;99657.44;5110714;28;20209;-60
2022/09/09 06:38:55;;;;;;;9.98;7.30;;;;;;;32.90;36.05;99660.25;5109709;28;20224;-59
2022/09/09 06:41:25;;;;;;;11.68;7.47;;;;;;;34.38;34.04;99667.94;5109743;28;20190;-59
2022/09/09 06:43:53;;;;;;;10.98;7.03;;;;;;;34.38;32.65;99650.94;5109867;28;20572;-59
2022/09/09 06:46:22;;;;;;;8.15;7.20;;;;;;;34.31;32.99;99644.66;5110140;28;20207;-59
2022/09/09 06:48:49;;;;;;;8.63;7.45;;;;;;;34.31;32.97;99655.44;5110338;28;20202;-61
2022/09/09 06:51:17;;;;;;;7.88;7.10;;;;;;;33.63;33.98;99641.44;5110952;28;20197;-60
2022/09/09 06:53:45;;;;;;;11.35;7.28;;;;;;;34.69;32.78;99658.66;5110887;28;20200;-60
2022/09/09 06:56:22;;;;;;;9.85;7.00;;;;;;;35.91;31.05;99663.28;5110712;28;20203;-60
2022/09/09 06:58:50;;;;;;;8.75;7.00;;;;;;;36.78;29.89;99666.97;5110860;28;20202;-59
2022/09/09 07:01:20;;;;;;;8.45;7.47;;;;;;;37.51;29.25;99673.03;5110471;28;20194;-60
2022/09/09 07:03:49;;;;;;;11.00;7.78;;;;;;;38.02;28.35;99665.75;5110565;28;20204;-57
2022/09/09 07:06:19;;;;;;;7.38;6.85;;;;;;;38.18;27.72;99669.00;5110328;28;20194;-61
2022/09/09 07:08:50;;;;;;;14.52;7.90;;;;;;;37.83;28.06;99674.78;5110529;28;20285;-60
2022/09/09 07:11:17;;;;;;;8.77;8.23;;;;;;;37.32;29.13;99666.66;5110396;28;20205;-60
2022/09/09 07:13:44;;;;;;;8.35;7.63;;;;;;;37.15;28.99;99644.59;5110353;28;20584;-59
2022/09/09 07:16:13;;;;;;;9.75;8.98;;;;;;;36.80;29.04;99656.78;5110261;28;20324;-53
2022/09/09 07:18:42;;;;;;;13.65;11.00;;;;;;;36.10;30.20;99659.00;5110376;28;20198;-53
2022/09/09 07:21:11;;;;;;;9.20;8.50;;;;;;;35.77;30.59;99658.09;5109227;28;20251;-53
2022/09/09 07:23:39;;;;;;;9.13;8.18;;;;;;;36.15;30.34;99661.06;5109830;28;20666;-60
2022/09/09 07:26:09;;;;;;;11.98;8.13;;;;;;;37.14;29.81;99664.59;5105796;28;20190;-60
2022/09/09 07:28:36;;;;;;;10.23;9.45;;;;;;;37.92;28.59;99665.38;5108855;28;20284;-60
2022/09/09 07:31:04;;;;;;;8.57;7.75;;;;;;;37.70;28.47;99677.59;5110194;28;20510;-60
2022/09/09 07:33:33;;;;;;;10.88;7.78;;;;;;;38.61;27.64;99674.50;5109390;28;20316;-61
2022/09/09 07:36:06;;;;;;;14.68;10.05;;;;;;;39.45;26.16;99660.34;5110007;28;20193;-62
2022/09/09 07:38:38;;;;;;;10.85;9.70;;;;;;;39.56;26.29;99665.00;5109946;28;20194;-61
2022/09/09 07:41:06;;;;;;;11.02;8.07;;;;;;;39.43;26.02;99662.44;5108951;28;20230;-61
2022/09/09 07:43:34;;;;;;;10.57;7.85;;;;;;;40.23;25.07;99669.28;5108805;28;20194;-61
2022/09/09 07:46:02;;;;;;;15.35;10.88;;;;;;;40.35;24.57;99660.34;5095725;28;20210;-60
2022/09/09 07:48:29;;;;;;;9.68;7.80;;;;;;;40.59;24.51;99662.88;5088087;28;20195;-61
2022/09/09 07:51:07;;;;;;;10.40;8.20;;;;;;;41.27;23.59;99667.75;5088794;28;20601;-62
2022/09/09 07:53:35;;;;;;;9.48;8.48;;;;;;;40.88;23.61;99636.63;5088696;28;20218;-62
2022/09/09 07:56:09;;;;;;;9.05;7.53;;;;;;;40.59;24.14;99656.59;5088834;28;20649;-61
2022/09/09 07:58:36;;;;;;;10.07;7.63;;;;;;;40.75;24.17;99657.84;5088889;28;20195;-61
2022/09/09 08:01:07;;;;;;;8.88;7.97;;;;;;;41.60;23.66;99660.81;5089117;28;20205;-61
2022/09/09 08:03:34;;;;;;;12.07;7.72;;;;;;;42.20;23.12;99658.41;5108093;28;20197;-61
2022/09/09 08:06:02;;;;;;;12.50;8.00;;;;;;;43.10;21.81;99658.22;5108411;28;20202;-61
2022/09/09 08:08:31;;;;;;;6.80;6.20;;;;;;;43.66;21.41;99655.38;5108127;28;20194;-61
2022/09/09 08:11:07;;;;;;;10.68;6.72;;;;;;;43.24;21.51;99658.66;5109157;28;20220;-61
2022/09/09 08:13:35;;;;;;;7.32;6.63;;;;;;;42.99;21.97;99645.50;5109220;28;20692;-61
2022/09/09 08:16:07;;;;;;;11.52;6.90;;;;;;;43.87;20.70;99645.47;5109249;28;20201;-61
2022/09/09 08:18:34;;;;;;;14.00;6.47;;;;;;;42.56;22.08;99648.06;5109441;28;20201;-62
2022/09/09 08:21:08;;;;;;;6.95;6.55;;;;;;;40.77;23.25;99637.44;5109455;28;20206;-62
2022/09/09 08:23:37;;;;;;;7.05;6.07;;;;;;;41.04;23.39;99639.69;5109525;28;20236;-62
2022/09/09 08:26:05;;;;;;;7.05;6.10;;;;;;;40.93;23.41;99631.28;5109475;28;20579;-61
2022/09/09 08:28:32;;;;;;;6.18;5.57;;;;;;;41.08;23.51;99643.59;5109588;28;20195;-61
2022/09/09 08:31:10;;;;;;;5.85;5.45;;;;;;;39.76;24.48;99624.78;5109286;28;20200;-61
2022/09/09 08:33:38;;;;;;;6.00;5.50;;;;;;;38.92;25.56;99616.63;5109417;28;20680;-61
2022/09/09 08:36:06;;;;;;;6.25;5.68;;;;;;;38.05;26.24;99616.50;5108455;28;20194;-54
2022/09/09 08:38:33;;;;;;;5.82;5.43;;;;;;;37.44;27.06;99619.75;5109587;28;20204;-54
2022/09/09 08:41:16;;;;;;;8.50;6.28;;;;;;;35.44;30.11;99607.44;5109407;28;20640;-53
2022/09/09 08:43:47;;;;;;;7.35;6.85;;;;;;;32.72;33.65;99602.31;5109716;28;20190;-53
2022/09/09 08:46:25;;;;;;;7.72;6.40;;;;;;;31.38;36.26;99598.38;5109292;28;20557;-60
2022/09/09 08:48:59;;;;;;;7.13;6.32;;;;;;;30.75;38.00;99596.59;5095779;28;20690;-61
2022/09/09 08:51:31;;;;;;;7.88;7.30;;;;;;;30.31;39.46;99594.28;5088139;28;20201;-60
2022/09/09 08:54:02;;;;;;;7.88;7.18;;;;;;;30.19;39.78;99595.63;5087924;28;20613;-60
2022/09/09 08:56:33;;;;;;;8.23;7.53;;;;;;;30.23;39.94;99596.16;5088043;28;20203;-60
2022/09/09 08:59:03;;;;;;;7.63;7.03;;;;;;;30.92;38.61;99592.03;5088042;28;20195;-60
2022/09/09 09:01:42;;;;;;;7.60;6.95;;;;;;;31.45;37.72;99579.75;5088174;28;20207;-54
2022/09/09 09:04:22;;;;;;;7.10;6.60;;;;;;;31.86;36.89;99591.94;5088146;28;20191;-53
2022/09/09 09:07:02;;;;;;;9.18;6.82;;;;;;;31.56;37.97;99593.59;5088919;28;20301;-54
2022/09/09 09:09:38;;;;;;;11.02;7.50;;;;;;;30.46;39.85;99578.38;5088572;28;20199;-52
2022/09/09 09:12:17;;;;;;;9.00;8.02;;;;;;;29.10;42.98;99583.31;5092090;28;20318;-53
2022/09/09 09:14:46;;;;;;;11.38;7.55;;;;;;;28.79;44.24;99578.47;5092245;28;20218;-54
2022/09/09 09:17:18;;;;;;;8.95;8.13;;;;;;;28.75;44.47;99574.44;5092599;28;20601;-54
2022/09/09 09:19:47;;;;;;;9.82;8.23;;;;;;;28.56;45.19;99569.28;5092343;28;20294;-53
2022/09/09 09:22:19;;;;;;;9.48;8.52;;;;;;;28.67;45.09;99562.88;5091999;28;20199;-61
2022/09/09 09:24:52;;;;;;;10.50;8.35;;;;;;;28.74;44.92;99559.41;5091522;28;20245;-53
2022/09/09 09:27:31;;;;;;;8.98;7.65;;;;;;;28.61;45.85;99547.47;5091324;28;20195;-54
2022/09/09 09:30:00;;;;;;;9.70;8.73;;;;;;;28.95;45.24;99534.13;5091916;28;20191;-53
2022/09/09 09:32:32;;;;;;;11.40;8.70;;;;;;;29.21;44.26;99542.94;5091623;28;20223;-53
2022/09/09 09:35:04;;;;;;;11.40;8.05;;;;;;;29.11;44.50;99540.41;5092361;28;20568;-54
2022/09/09 09:37:34;;;;;;;10.50;8.05;;;;;;;29.47;43.94;99543.69;5091215;28;20196;-62
2022/09/09 09:40:10;;;;;;;9.13;8.32;;;;;;;31.58;39.45;99545.13;5091321;28;20622;-61
2022/09/09 09:42:39;;;;;;;13.07;8.65;;;;;;;32.73;36.58;99522.50;5091595;28;20256;-60
2022/09/09 09:45:18;;;;;;;9.25;7.95;;;;;;;33.65;35.22;99541.59;5091910;28;20553;-60
2022/09/09 09:47:45;;;;;;;12.27;7.70;;;;;;;32.96;35.94;99547.41;5091709;28;20203;-61
2022/09/09 09:50:18;;;;;;;10.00;8.35;;;;;;;31.65;38.40;99535.38;5092092;28;20213;-60
2022/09/09 09:52:55;;;;;;;11.40;8.15;;;;;;;30.94;40.19;99522.97;5091571;28;20225;-61
2022/09/09 09:55:23;;;;;;;8.95;8.15;;;;;;;30.27;41.79;99514.44;5091637;28;20202;-61
2022/09/09 09:57:53;;;;;;;8.93;8.15;;;;;;;29.94;43.45;99510.94;5093699;28;20230;-59
2022/09/09 10:00:22;;;;;;;12.25;9.18;;;;;;;29.47;43.64;99502.72;5102527;28;20205;-60
2022/09/09 10:02:51;;;;;;;18.05;9.05;;;;;;;29.36;44.23;99495.81;5110892;28;20317;-57
2022/09/09 10:05:21;;;;;;;10.73;9.40;;;;;;;29.06;45.44;99499.94;5111889;28;20191;-57
2022/09/09 10:08:02;;;;;;;11.40;9.02;;;;;;;29.05;45.73;99497.44;5111818;28;20321;-58
2022/09/09 10:10:48;;;;;;;9.48;8.57;;;;;;;28.89;46.32;99491.03;5110427;28;20250;-58
2022/09/09 10:13:24;;;;;;;9.63;8.93;;;;;;;28.73;47.10;99490.09;5108237;28;20214;-58
2022/09/09 10:16:02;;;;;;;9.48;8.77;;;;;;;28.48;48.00;99487.31;5111259;28;20186;-57
2022/09/09 10:18:44;;;;;;;11.68;9.32;;;;;;;28.43;48.63;99481.63;5110982;28;20646;-57
2022/09/09 10:21:22;;;;;;;10.38;9.73;;;;;;;28.49;48.79;99490.81;5110440;28;20600;-59
2022/09/09 10:24:04;;;;;;;11.07;10.02;;;;;;;28.42;49.70;99484.47;5111535;28;20257;-57
2022/09/09 10:26:40;;;;;;;14.32;8.75;;;;;;;28.40;49.45;99470.44;5111482;28;20257;-58
2022/09/09 10:29:39;;;;;;;11.30;9.65;;;;;;;28.35;49.77;99491.41;5112841;28;20200;-58
2022/09/09 10:32:29;;;;;;;11.55;9.52;;;;;;;28.38;50.50;99488.44;5095643;28;20205;-58
2022/09/09 10:34:59;;;;;;;9.65;8.82;;;;;;;28.57;50.26;99490.03;5112052;28;20204;-58
2022/09/09 10:37:43;;;;;;;10.38;9.50;;;;;;;28.75;49.82;99480.09;5112004;28;20198;-58
2022/09/09 10:40:25;;;;;;;10.52;8.98;;;;;;;28.54;50.15;99477.84;5111825;28;20198;-57
2022/09/09 10:42:58;;;;;;;9.82;8.95;;;;;;;28.49;49.74;99482.81;5111829;28;20208;-57
2022/09/09 10:45:34;;;;;;;10.82;9.93;;;;;;;28.46;50.57;99478.63;5111865;28;20195;-58
2022/09/09 10:48:30;;;;;;;11.38;9.90;;;;;;;28.68;50.14;99471.88;5111726;28;20202;-57
2022/09/09 10:51:11;;;;;;;10.82;9.68;;;;;;;28.78;49.44;99474.47;5111786;28;20584;-59
2022/09/09 10:53:47;;;;;;;10.25;9.20;;;;;;;28.79;49.70;99468.94;5111778;28;20222;-57
2022/09/09 10:56:18;;;;;;;9.25;8.68;;;;;;;28.96;49.08;99461.00;5111550;28;20220;-58
2022/09/09 10:58:50;;;;;;;10.07;9.13;;;;;;;28.83;49.90;99467.63;5110975;28;20194;-53
2022/09/09 11:01:22;;;;;;;11.77;8.90;;;;;;;28.69;49.72;99433.50;5110643;28;20285;-54
2022/09/09 11:03:56;;;;;;;10.38;9.35;;;;;;;28.85;49.39;99465.66;5110841;28;20209;-53
2022/09/09 11:06:30;;;;;;;9.30;8.55;;;;;;;28.81;49.70;99458.94;5110648;28;20209;-53
2022/09/09 11:09:02;;;;;;;9.57;8.68;;;;;;;28.78;49.66;99451.25;5110468;28;20186;-53
2022/09/09 11:11:33;;;;;;;9.63;8.60;;;;;;;28.72;50.19;99449.19;5110704;28;20279;-58
2022/09/09 11:14:06;;;;;;;10.35;8.75;;;;;;;28.73;50.07;99440.19;5110948;28;20222;-57
2022/09/09 11:16:42;;;;;;;9.80;8.65;;;;;;;28.69;50.04;99444.16;5110810;28;20195;-57
2022/09/09 11:19:15;;;;;;;9.70;8.07;;;;;;;28.90;49.63;99443.75;5110650;28;20202;-57
2022/09/09 11:21:47;;;;;;;9.32;8.43;;;;;;;28.99;48.80;99433.97;5110577;28;20582;-58
2022/09/09 11:24:22;;;;;;;7.53;7.03;;;;;;;29.04;48.30;99429.78;5110787;28;20191;-58
2022/09/09 11:26:56;;;;;;;8.55;7.78;;;;;;;29.12;48.83;99423.63;5110744;28;20259;-58
2022/09/09 11:29:53;;;;;;;9.07;8.15;;;;;;;29.06;49.27;99419.75;5110217;27;20664;-58
2022/09/09 11:32:50;;;;;;;7.53;7.03;;;;;;;28.95;48.86;99417.41;5109489;28;20325;-57
2022/09/09 11:35:32;;;;;;;8.95;8.20;;;;;;;28.87;48.94;99415.56;5097625;28;20205;-58
2022/09/09 11:38:18;;;;;;;10.20;9.20;;;;;;;28.95;49.33;99408.56;5107120;28;20230;-57
2022/09/09 11:40:46;;;;;;;7.97;7.28;;;;;;;29.04;48.84;99416.41;5110392;28;20259;-57
2022/09/09 11:43:17;;;;;;;7.88;7.00;;;;;;;28.98;48.50;99410.91;5110135;28;20193;-58